createdAt,value
2022-09-04T00:00:15.018Z,12.04
2022-09-04T00:03:05.151Z,12.03
2022-09-04T00:05:50.456Z,12.02
2022-09-04T00:08:42.794Z,12.01
2022-09-04T00:11:23.783Z,11.99
2022-09-04T00:13:58.793Z,11.97
2022-09-04T00:16:48.312Z,11.96
2022-09-04T00:19:46.028Z,11.93
2022-09-04T00:22:42.412Z,11.87
2022-09-04T00:25:32.374Z,11.81
2022-09-04T00:28:28.564Z,11.75
2022-09-04T00:31:05.966Z,11.68
2022-09-04T00:34:07.637Z,11.67
2022-09-04T00:36:41.163Z,11.66
2022-09-04T00:39:40.458Z,11.64
2022-09-04T00:42:53.669Z,11.62
2022-09-04T00:45:28.117Z,11.56
2022-09-04T00:48:08.701Z,11.55
2022-09-04T00:50:55.979Z,11.53
2022-09-04T00:53:37.930Z,11.50
2022-09-04T00:56:38.898Z,11.44
2022-09-04T00:59:26.853Z,11.39
2022-09-04T01:02:06.875Z,11.37
2022-09-04T01:04:40.709Z,11.37
2022-09-04T01:07:24.242Z,11.38
2022-09-04T01:10:30.770Z,11.40
2022-09-04T01:13:27.898Z,11.38
2022-09-04T01:16:05.600Z,11.40
2022-09-04T01:18:44.353Z,11.37
2022-09-04T01:21:30.589Z,11.35
2022-09-04T01:24:18.278Z,11.33
2022-09-04T01:27:21.790Z,11.31
2022-09-04T01:30:21.846Z,11.26
2022-09-04T01:33:24.644Z,11.20
2022-09-04T01:36:11.536Z,11.17
2022-09-04T01:38:59.205Z,11.11
2022-09-04T01:41:38.217Z,11.03
2022-09-04T01:44:09.898Z,10.97
2022-09-04T01:47:03.613Z,10.96
2022-09-04T01:49:44.313Z,10.97
2022-09-04T01:52:22.034Z,10.96
2022-09-04T01:54:57.411Z,10.95
2022-09-04T01:57:50.443Z,10.94
2022-09-04T02:00:23.697Z,10.91
2022-09-04T02:03:02.460Z,10.90
2022-09-04T02:05:45.697Z,10.90
2022-09-04T02:08:45.690Z,10.88
2022-09-04T02:11:27.781Z,10.85
2022-09-04T02:14:09.735Z,10.82
2022-09-04T02:17:00.689Z,10.83
2022-09-04T02:20:16.717Z,10.88
2022-09-04T02:23:12.095Z,10.97
2022-09-04T02:26:29.525Z,11.03
2022-09-04T02:29:03.805Z,11.05
2022-09-04T02:32:00.348Z,11.08
2022-09-04T02:34:45.508Z,11.11
2022-09-04T02:37:26.727Z,11.14
2022-09-04T02:40:13.823Z,11.17
2022-09-04T02:43:04.093Z,11.17
2022-09-04T02:45:42.852Z,11.19
2022-09-04T02:49:08.262Z,11.21
2022-09-04T02:51:55.121Z,11.25
2022-09-04T02:54:39.086Z,11.29
2022-09-04T02:57:48.201Z,11.30
2022-09-04T03:00:21.377Z,11.32
2022-09-04T03:03:01.749Z,11.33
2022-09-04T03:05:33.672Z,11.34
2022-09-04T03:08:13.736Z,11.32
2022-09-04T03:10:48.502Z,11.32
2022-09-04T03:13:35.973Z,11.32
2022-09-04T03:16:32.695Z,11.33
2022-09-04T03:19:13.037Z,11.36
2022-09-04T03:22:11.039Z,11.37
2022-09-04T03:25:05.490Z,11.38
2022-09-04T03:27:34.846Z,11.38
2022-09-04T03:30:10.690Z,11.38
2022-09-04T03:32:57.396Z,11.37
2022-09-04T03:35:34.797Z,11.37
2022-09-04T03:38:20.743Z,11.38
2022-09-04T03:41:26.544Z,11.37
2022-09-04T03:44:36.493Z,11.38
2022-09-04T03:47:15.922Z,11.40
2022-09-04T03:49:44.339Z,11.40
2022-09-04T03:52:28.212Z,11.40
2022-09-04T03:55:23.750Z,11.41
2022-09-04T03:58:21.554Z,11.41
2022-09-04T04:00:57.362Z,11.40
2022-09-04T04:03:56.486Z,11.40
2022-09-04T04:06:56.474Z,11.38
2022-09-04T04:09:27.176Z,11.38
2022-09-04T04:12:04.578Z,11.37
2022-09-04T04:14:47.562Z,11.40
2022-09-04T04:17:24.840Z,11.42
2022-09-04T04:20:18.702Z,11.44
2022-09-04T04:22:55.166Z,11.46
2022-09-04T04:25:52.403Z,11.46
2022-09-04T04:28:42.742Z,11.46
2022-09-04T04:31:20.166Z,11.46
2022-09-04T04:34:25.562Z,11.46
2022-09-04T04:37:09.440Z,11.44
2022-09-04T04:40:02.506Z,11.45
2022-09-04T04:42:44.477Z,11.47
2022-09-04T04:45:37.296Z,11.49
2022-09-04T04:48:27.069Z,11.50
2022-09-04T04:51:14.070Z,11.52
2022-09-04T04:54:27.954Z,11.51
2022-09-04T04:57:02.357Z,11.53
2022-09-04T05:00:08.725Z,11.56
2022-09-04T05:02:43.104Z,11.59
2022-09-04T05:05:41.836Z,11.62
2022-09-04T05:08:15.234Z,11.66
2022-09-04T05:11:27.096Z,11.70
2022-09-04T05:14:27.646Z,11.75
2022-09-04T05:17:17.688Z,11.80
2022-09-04T05:20:18.593Z,11.84
2022-09-04T05:23:12.395Z,11.87
2022-09-04T05:25:51.231Z,11.90
2022-09-04T05:28:53.389Z,11.90
2022-09-04T05:31:43.367Z,11.92
2022-09-04T05:34:14.396Z,11.92
2022-09-04T05:37:21.453Z,11.92
2022-09-04T05:40:01.296Z,11.93
2022-09-04T05:43:00.377Z,11.92
2022-09-04T05:46:03.897Z,11.93
2022-09-04T05:48:43.337Z,11.95
2022-09-04T05:51:30.008Z,11.97
2022-09-04T05:54:33.317Z,11.99
2022-09-04T05:57:36.597Z,12.00
2022-09-04T06:00:14.890Z,12.06
2022-09-04T06:02:46.666Z,12.13
2022-09-04T06:05:37.005Z,12.21
2022-09-04T06:08:33.448Z,12.29
2022-09-04T06:11:23.526Z,12.36
2022-09-04T06:14:05.011Z,12.42
2022-09-04T06:16:58.561Z,12.48
2022-09-04T06:19:51.639Z,12.55
2022-09-04T06:22:55.791Z,12.64
2022-09-04T06:26:00.491Z,12.74
2022-09-04T06:28:49.056Z,12.81
2022-09-04T06:31:20.093Z,12.90
2022-09-04T06:34:26.653Z,12.98
2022-09-04T06:37:00.953Z,13.06
2022-09-04T06:39:32.667Z,13.15
2022-09-04T06:42:15.181Z,13.21
2022-09-04T06:44:53.901Z,13.28
2022-09-04T06:47:28.241Z,13.36
2022-09-04T06:50:14.085Z,13.43
2022-09-04T06:53:04.548Z,13.50
2022-09-04T06:55:46.059Z,13.60
2022-09-04T06:58:19.597Z,13.66
2022-09-04T07:01:09.129Z,13.69
2022-09-04T07:04:05.133Z,13.71
2022-09-04T07:06:59.683Z,13.77
2022-09-04T07:10:05.116Z,13.85
2022-09-04T07:12:53.378Z,13.95
2022-09-04T07:15:44.965Z,14.04
2022-09-04T07:18:38.112Z,14.15
2022-09-04T07:21:43.019Z,14.24
2022-09-04T07:24:17.742Z,14.31
2022-09-04T07:27:15.987Z,14.37
2022-09-04T07:30:04.674Z,14.45
2022-09-04T07:32:55.687Z,14.52
2022-09-04T07:35:32.800Z,14.60
2022-09-04T07:38:29.437Z,14.67
2022-09-04T07:41:10.814Z,14.74
2022-09-04T07:43:43.416Z,14.81
2022-09-04T07:46:49.796Z,14.89
2022-09-04T07:49:21.449Z,14.96
2022-09-04T07:51:56.287Z,15.02
2022-09-04T07:54:53.830Z,15.11
2022-09-04T07:57:53.900Z,15.24
2022-09-04T08:00:23.036Z,15.33
2022-09-04T08:03:18.058Z,15.39
2022-09-04T08:05:52.432Z,15.47
2022-09-04T08:08:40.031Z,15.54
2022-09-04T08:11:38.485Z,15.64
2022-09-04T08:14:28.862Z,15.73
2022-09-04T08:17:06.617Z,15.81
2022-09-04T08:19:46.458Z,15.88
2022-09-04T08:22:28.269Z,15.93
2022-09-04T08:25:24.251Z,16.02
2022-09-04T08:28:00.250Z,16.13
2022-09-04T08:31:02.449Z,16.25
2022-09-04T08:33:54.350Z,16.39
2022-09-04T08:36:42.313Z,16.52
2022-09-04T08:39:20.514Z,16.62
2022-09-04T08:42:14.940Z,16.70
2022-09-04T08:44:46.115Z,16.79
2022-09-04T08:47:20.072Z,16.85
2022-09-04T08:50:06.893Z,16.92
2022-09-04T08:53:03.741Z,17.00
2022-09-04T08:55:50.217Z,17.09
2022-09-04T08:58:30.443Z,17.19
2022-09-04T09:01:37.114Z,17.27
2022-09-04T09:04:14.648Z,17.36
2022-09-04T09:07:31.483Z,17.42
2022-09-04T09:10:33.620Z,17.47
2022-09-04T09:13:36.957Z,17.51
2022-09-04T09:16:36.727Z,17.54
2022-09-04T09:19:24.400Z,17.59
2022-09-04T09:22:40.411Z,17.66
2022-09-04T09:25:22.328Z,17.73
2022-09-04T09:28:15.092Z,17.79
2022-09-04T09:31:10.957Z,17.85
2022-09-04T09:33:57.655Z,17.90
2022-09-04T09:36:36.356Z,17.94
2022-09-04T09:39:07.311Z,18.00
2022-09-04T09:42:07.821Z,18.06
2022-09-04T09:45:07.060Z,18.11
2022-09-04T09:48:11.506Z,18.20
2022-09-04T09:50:55.667Z,18.23
2022-09-04T09:53:47.422Z,18.26
2022-09-04T09:56:34.379Z,18.28
2022-09-04T09:59:10.970Z,18.31
2022-09-04T10:01:58.843Z,18.37
2022-09-04T10:04:49.642Z,18.42
2022-09-04T10:07:55.198Z,18.47
2022-09-04T10:10:56.039Z,18.53
2022-09-04T10:13:51.041Z,18.60
2022-09-04T10:16:38.189Z,18.65
2022-09-04T10:19:10.322Z,18.70
2022-09-04T10:22:11.175Z,18.74
2022-09-04T10:24:52.024Z,18.78
2022-09-04T10:27:54.572Z,18.83
2022-09-04T10:30:49.803Z,18.94
2022-09-04T10:38:04.124Z,19.14
2022-09-04T10:41:21.744Z,19.19
2022-09-04T10:44:47.536Z,19.30
2022-09-04T10:50:54.344Z,19.54
2022-09-04T10:53:53.088Z,19.56
2022-09-04T10:56:50.803Z,19.60
2022-09-04T10:59:36.341Z,19.65
2022-09-04T11:02:36.891Z,19.68
2022-09-04T11:05:24.984Z,19.63
2022-09-04T11:08:45.846Z,19.65
2022-09-04T11:11:42.136Z,19.68
2022-09-04T11:14:29.537Z,19.69
2022-09-04T11:17:24.352Z,19.74
2022-09-04T11:20:35.311Z,19.81
2022-09-04T11:23:28.613Z,19.83
2022-09-04T11:26:55.606Z,19.81
2022-09-04T11:30:10.462Z,19.84
2022-09-04T11:32:55.644Z,19.89
2022-09-04T11:36:06.140Z,19.92
2022-09-04T11:39:12.371Z,20.00
2022-09-04T11:41:43.409Z,20.09
2022-09-04T11:44:26.800Z,20.16
2022-09-04T11:51:40.928Z,20.19
2022-09-04T11:54:47.460Z,20.18
2022-09-04T11:57:59.598Z,20.18
2022-09-04T12:01:16.891Z,20.18
2022-09-04T12:04:04.009Z,20.23
2022-09-04T12:06:54.883Z,20.26
2022-09-04T12:09:35.434Z,20.33
2022-09-04T12:12:12.822Z,20.38
2022-09-04T12:15:07.370Z,20.40
2022-09-04T12:21:42.107Z,20.45
2022-09-04T12:24:51.943Z,20.50
2022-09-04T12:27:26.260Z,20.59
2022-09-04T12:30:51.677Z,20.68
2022-09-04T12:38:01.054Z,20.70
2022-09-04T12:41:30.170Z,20.70
2022-09-04T12:44:17.510Z,20.72
2022-09-04T12:47:14.371Z,20.68
2022-09-04T12:49:49.004Z,20.67
2022-09-04T12:52:23.249Z,20.74
2022-09-04T12:55:01.753Z,20.82
2022-09-04T12:58:13.813Z,20.83
2022-09-04T13:01:32.360Z,20.79
2022-09-04T13:04:28.998Z,20.85
2022-09-04T13:07:15.700Z,20.82
2022-09-04T13:10:13.564Z,20.70
2022-09-04T13:12:53.320Z,20.57
2022-09-04T13:16:09.657Z,20.50
2022-09-04T13:19:10.674Z,20.54
2022-09-04T13:22:06.303Z,20.61
2022-09-04T13:28:11.612Z,20.78
2022-09-04T13:31:09.662Z,20.83
2022-09-04T13:33:41.122Z,20.85
2022-09-04T13:39:57.408Z,20.90
2022-09-04T13:42:35.073Z,20.99
2022-09-04T13:45:09.309Z,21.06
2022-09-04T13:49:25.573Z,21.06
2022-09-04T13:51:59.900Z,21.10
2022-09-04T13:54:57.010Z,21.17
2022-09-04T13:57:30.667Z,21.15
2022-09-04T14:03:55.614Z,21.08
2022-09-04T14:06:33.326Z,21.11
2022-09-04T14:09:06.024Z,21.16
2022-09-04T14:12:20.296Z,21.17
2022-09-04T14:16:17.075Z,21.19
2022-09-04T14:19:15.886Z,21.19
2022-09-04T14:22:25.865Z,21.18
2022-09-04T14:25:13.278Z,21.19
2022-09-04T14:28:35.629Z,21.21
2022-09-04T14:31:25.096Z,21.19
2022-09-04T14:34:38.221Z,21.16
2022-09-04T14:37:16.595Z,21.18
2022-09-04T14:39:55.411Z,21.19
2022-09-04T14:42:44.820Z,21.21
2022-09-04T14:45:48.532Z,21.26
2022-09-04T14:48:22.575Z,21.28
2022-09-04T14:51:41.195Z,21.30
2022-09-04T14:54:28.990Z,21.31
2022-09-04T14:57:11.703Z,21.33
2022-09-04T15:00:07.159Z,21.33
2022-09-04T15:02:58.996Z,21.35
2022-09-04T15:05:34.742Z,21.37
2022-09-04T15:08:11.872Z,21.39
2022-09-04T15:11:09.957Z,21.39
2022-09-04T15:14:24.693Z,21.35
2022-09-04T15:17:03.628Z,21.29
2022-09-04T15:19:46.856Z,21.22
2022-09-04T15:22:49.335Z,21.15
2022-09-04T15:26:06.910Z,21.04
2022-09-04T15:28:43.348Z,20.98
2022-09-04T15:31:17.945Z,20.95
2022-09-04T15:33:49.596Z,20.92
2022-09-04T15:36:25.967Z,20.88
2022-09-04T15:39:02.493Z,20.83
2022-09-04T15:41:56.013Z,20.77
2022-09-04T15:44:40.959Z,20.72
2022-09-04T15:48:19.583Z,20.69
2022-09-04T15:54:21.733Z,20.57
2022-09-04T15:56:53.147Z,20.51
2022-09-04T15:59:30.670Z,20.47
2022-09-04T16:02:19.925Z,20.40
2022-09-04T16:05:39.830Z,20.37
2022-09-04T16:08:27.188Z,20.32
2022-09-04T16:11:16.091Z,20.28
2022-09-04T16:13:56.942Z,20.23
2022-09-04T16:16:58.032Z,20.20
2022-09-04T16:19:42.364Z,20.14
2022-09-04T16:22:26.643Z,20.07
2022-09-04T16:25:08.861Z,20.03
2022-09-04T16:27:52.604Z,20.01
2022-09-04T16:30:30.453Z,19.98
2022-09-04T16:33:00.747Z,19.95
2022-09-04T16:35:36.552Z,19.93
2022-09-04T16:38:26.109Z,19.90
2022-09-04T16:41:18.299Z,19.87
2022-09-04T16:44:12.149Z,19.82
2022-09-04T16:47:21.647Z,19.78
2022-09-04T16:50:00.466Z,19.72
2022-09-04T16:53:13.559Z,19.68
2022-09-04T16:56:52.717Z,19.60
2022-09-04T16:59:48.986Z,19.54
2022-09-04T17:02:45.728Z,19.48
2022-09-04T17:05:17.977Z,19.39
2022-09-04T17:09:05.757Z,19.32
2022-09-04T17:11:55.343Z,19.18
2022-09-04T17:15:06.820Z,19.09
2022-09-04T17:17:59.841Z,18.99
2022-09-04T17:21:38.293Z,18.87
2022-09-04T17:29:03.302Z,18.76
2022-09-04T17:31:50.389Z,18.50
2022-09-04T17:40:50.145Z,18.31
2022-09-04T17:40:56.106Z,18.41
2022-09-04T17:42:21.050Z,18.25
2022-09-04T17:45:02.684Z,18.18
2022-09-04T17:47:38.389Z,18.13
2022-09-04T17:50:16.999Z,18.08
2022-09-04T17:53:25.059Z,18.03
2022-09-04T17:57:23.612Z,17.95
2022-09-04T18:00:12.337Z,17.85
2022-09-04T18:03:40.091Z,17.77
2022-09-04T18:06:50.038Z,17.68
2022-09-04T18:09:55.602Z,17.59
2022-09-04T18:12:47.832Z,17.50
2022-09-04T18:15:35.081Z,17.42
2022-09-04T18:18:24.997Z,17.34
2022-09-04T18:21:26.989Z,17.25
2022-09-04T18:27:01.921Z,17.11
2022-09-04T18:33:25.300Z,17.04
2022-09-04T18:37:19.447Z,16.92
2022-09-04T18:37:23.203Z,16.98
2022-09-04T18:39:24.757Z,16.87
2022-09-04T18:50:21.797Z,16.80
2022-09-04T18:50:50.777Z,16.74
2022-09-04T18:50:53.391Z,16.68
2022-09-04T18:51:35.696Z,16.65
2022-09-04T18:54:22.847Z,16.61
2022-09-04T18:57:06.647Z,16.56
2022-09-04T18:59:44.259Z,16.51
2022-09-04T19:02:29.838Z,16.47
2022-09-04T19:05:09.394Z,16.41
2022-09-04T19:07:49.747Z,16.36
2022-09-04T19:10:35.246Z,16.27
2022-09-04T19:14:27.542Z,16.19
2022-09-04T19:17:49.000Z,16.12
2022-09-04T19:20:42.969Z,16.01
2022-09-04T19:27:33.267Z,15.74
2022-09-04T19:30:34.352Z,15.67
2022-09-04T19:33:21.013Z,15.61
2022-09-04T19:36:19.972Z,15.53
2022-09-04T19:45:57.651Z,15.45
2022-09-04T19:46:02.085Z,15.34
2022-09-04T19:46:11.954Z,15.25
2022-09-04T19:48:32.516Z,15.17
2022-09-04T19:53:29.745Z,15.11
2022-09-04T19:54:19.667Z,15.02
2022-09-04T19:57:31.189Z,14.95
2022-09-04T19:59:46.075Z,14.90
2022-09-04T20:02:32.601Z,14.89
2022-09-04T20:05:04.959Z,14.90
2022-09-04T20:07:44.928Z,14.91
2022-09-04T20:10:21.921Z,14.92
2022-09-04T20:13:09.145Z,14.94
2022-09-04T20:15:53.226Z,14.96
2022-09-04T20:18:39.421Z,14.93
2022-09-04T20:21:20.288Z,14.90
2022-09-04T20:23:54.191Z,14.87
2022-09-04T20:26:42.583Z,14.86
2022-09-04T20:29:25.876Z,14.87
2022-09-04T20:32:00.302Z,14.86
2022-09-04T20:34:38.788Z,14.85
2022-09-04T20:37:53.895Z,14.84
2022-09-04T20:40:42.561Z,14.81
2022-09-04T20:43:31.955Z,14.80
2022-09-04T20:48:13.901Z,14.79
2022-09-04T20:52:56.058Z,14.79
2022-09-04T20:52:57.019Z,14.77
2022-09-04T20:55:38.455Z,14.74
2022-09-04T21:01:16.380Z,14.71
2022-09-04T21:03:23.995Z,14.67
2022-09-04T21:04:54.887Z,14.62
2022-09-04T21:07:41.155Z,14.58
2022-09-04T21:10:29.308Z,14.54
2022-09-04T21:13:14.012Z,14.48
2022-09-04T21:16:05.678Z,14.41
2022-09-04T21:18:46.146Z,14.37
2022-09-04T21:21:47.275Z,14.34
2022-09-04T21:24:37.773Z,14.35
2022-09-04T21:27:28.253Z,14.37
2022-09-04T21:30:02.996Z,14.40
2022-09-04T21:33:23.879Z,14.42
2022-09-04T21:35:55.774Z,14.44
2022-09-04T21:39:10.596Z,14.45
2022-09-04T21:42:25.462Z,14.45
2022-09-04T21:45:31.960Z,14.45
2022-09-04T21:48:37.148Z,14.44
2022-09-04T21:51:43.729Z,14.43
2022-09-04T21:56:21.438Z,14.41
2022-09-04T22:02:25.004Z,14.41
2022-09-04T22:02:46.275Z,14.42
2022-09-04T22:03:30.013Z,14.42
2022-09-04T22:07:11.098Z,14.41
2022-09-04T22:13:29.711Z,14.41
2022-09-04T22:13:42.850Z,14.40
2022-09-04T22:16:00.645Z,14.40
2022-09-04T22:18:47.905Z,14.39
2022-09-04T22:22:02.129Z,14.38
2022-09-04T22:24:51.848Z,14.37
2022-09-04T22:28:08.149Z,14.36
2022-09-04T22:31:03.759Z,14.34
2022-09-04T22:34:15.133Z,14.33
2022-09-04T22:37:09.201Z,14.32
2022-09-04T22:39:46.673Z,14.29
2022-09-04T22:42:33.837Z,14.26
2022-09-04T22:45:39.386Z,14.24
2022-09-04T22:48:43.424Z,14.23
2022-09-04T22:51:28.185Z,14.21
2022-09-04T22:54:18.469Z,14.21
2022-09-04T22:57:02.492Z,14.20
2022-09-04T23:00:01.971Z,14.20
2022-09-04T23:03:10.161Z,14.19
2022-09-04T23:07:54.770Z,14.18
2022-09-04T23:13:49.202Z,14.15
2022-09-04T23:13:52.294Z,14.16
2022-09-04T23:15:49.289Z,14.13
2022-09-04T23:22:02.537Z,14.12
2022-09-04T23:26:33.954Z,14.11
2022-09-04T23:26:41.691Z,14.10
2022-09-04T23:28:39.463Z,14.08
2022-09-04T23:31:28.547Z,14.07
2022-09-04T23:34:36.758Z,14.05
2022-09-04T23:38:03.170Z,14.03
2022-09-04T23:40:55.266Z,14.00
2022-09-04T23:44:29.155Z,13.99
2022-09-04T23:47:47.378Z,13.97
2022-09-04T23:50:43.565Z,13.95
2022-09-04T23:54:25.282Z,13.92
2022-09-04T23:57:35.351Z,13.89
